Main page
METAR-TAF:

METAR-TAF

Airports :

Wallis, France

Hihifo Airport

latitude: 13-14S, longitude: 176-10W, elevation: 23 m

METAR: missing

Time: 14:43 (02:43 UTC)

Forecast

The report was made 3 hours and 43 minutes ago, at 23:00 UTC
Forecast valid from 30 at 00 UTC to 30 at 24 UTC
Wind 7 kt from the East
Visibility 10 km or more
Few clouds at a height of 2500 ft
Temporary
from 30 at 11 UTC to 30 at 16 UTC
Few clouds at a height of 2000 ft, Towering cumulus.

TAF: NLWW 292300Z 3000/3024 08007KT 9999 FEW025 TEMPO 3011/3016 FEW020TCU

Weather observations and forecasts of more than 4000 airports (METAR and TAF reports).

The available stations are represented by yellow and red dots on the map.

Hover mouse over dot to see the name of the station.

Then click to see weather observations and forecasts.

To change the map : click on the green buttons with a black cross to zoom in, on the green button with a dash to zoom out, or on the green arrows for adjacent maps.


METAR-TAF: